createdAt,value
2022-10-10T00:00:33.515Z,8.57
2022-10-10T00:03:01.974Z,12.13
2022-10-10T00:05:30.379Z,12.00
2022-10-10T00:07:58.955Z,12.97
2022-10-10T00:10:27.388Z,10.73
2022-10-10T00:13:00.326Z,9.93
2022-10-10T00:15:28.786Z,8.57
2022-10-10T00:17:57.217Z,9.73
2022-10-10T00:20:28.051Z,11.10
2022-10-10T00:22:56.684Z,12.63
2022-10-10T00:25:25.166Z,11.43
2022-10-10T00:27:53.586Z,9.37
2022-10-10T00:30:23.775Z,12.30
2022-10-10T00:32:52.364Z,11.87
2022-10-10T00:35:21.330Z,12.23
2022-10-10T00:37:49.733Z,8.17
2022-10-10T00:40:18.189Z,8.57
2022-10-10T00:42:46.632Z,10.37
2022-10-10T00:45:27.885Z,12.57
2022-10-10T00:47:58.662Z,13.00
2022-10-10T00:50:27.327Z,11.97
2022-10-10T00:52:55.990Z,9.57
2022-10-10T00:55:24.475Z,14.90
2022-10-10T00:57:53.187Z,11.07
2022-10-10T01:00:21.824Z,12.17
2022-10-10T01:02:51.935Z,9.80
2022-10-10T01:05:20.878Z,10.70
2022-10-10T01:07:49.317Z,13.17
2022-10-10T01:10:19.418Z,8.67
2022-10-10T01:12:54.414Z,10.50
2022-10-10T01:15:26.721Z,10.67
2022-10-10T01:18:00.094Z,14.33
2022-10-10T01:20:32.983Z,11.23
2022-10-10T01:23:16.269Z,13.93
2022-10-10T01:25:51.435Z,11.30
2022-10-10T01:28:26.658Z,10.50
2022-10-10T01:30:56.776Z,9.03
2022-10-10T01:33:28.353Z,11.77
2022-10-10T01:35:59.082Z,12.67
2022-10-10T01:38:31.083Z,10.80
2022-10-10T01:41:04.584Z,11.73
2022-10-10T01:43:34.374Z,10.60
2022-10-10T01:46:11.009Z,14.67
2022-10-10T01:48:41.922Z,11.30
2022-10-10T01:51:18.405Z,10.63
2022-10-10T01:53:50.436Z,15.70
2022-10-10T01:56:23.847Z,11.77
2022-10-10T01:59:06.264Z,12.37
2022-10-10T02:01:36.996Z,12.30
2022-10-10T02:04:09.040Z,13.90
2022-10-10T02:06:40.230Z,13.13
2022-10-10T02:09:10.721Z,15.57
2022-10-10T02:11:40.242Z,10.87
2022-10-10T02:14:13.312Z,10.80
2022-10-10T02:16:44.244Z,13.53
2022-10-10T02:19:16.810Z,12.63
2022-10-10T02:21:46.332Z,13.83
2022-10-10T02:24:15.086Z,15.03
2022-10-10T02:26:45.827Z,13.40
2022-10-10T02:29:18.539Z,15.40
2022-10-10T02:31:50.171Z,13.37
2022-10-10T02:34:19.686Z,11.20
2022-10-10T02:36:51.210Z,13.77
2022-10-10T02:39:20.715Z,15.73
2022-10-10T02:41:50.952Z,16.37
2022-10-10T02:44:20.917Z,18.53
2022-10-10T02:46:49.440Z,14.00
2022-10-10T02:49:24.397Z,14.40
2022-10-10T02:51:55.840Z,25.40
2022-10-10T02:54:24.788Z,20.77
2022-10-10T02:56:53.220Z,17.63
2022-10-10T02:59:26.066Z,17.40
2022-10-10T03:01:54.500Z,16.83
2022-10-10T03:04:22.938Z,17.43
2022-10-10T03:06:51.437Z,21.70
2022-10-10T03:09:19.904Z,26.87
2022-10-10T03:11:48.331Z,22.17
2022-10-10T03:14:16.779Z,19.03
2022-10-10T03:16:46.584Z,21.33
2022-10-10T03:19:14.986Z,30.90
2022-10-10T03:21:43.387Z,26.83
2022-10-10T03:24:11.839Z,23.53
2022-10-10T03:26:40.341Z,24.53
2022-10-10T03:29:08.948Z,22.00
2022-10-10T03:31:37.376Z,31.47
2022-10-10T03:34:07.195Z,32.03
2022-10-10T03:36:35.666Z,21.70
2022-10-10T03:39:04.125Z,22.97
2022-10-10T03:41:35.472Z,22.17
2022-10-10T03:44:04.609Z,27.33
2022-10-10T03:46:33.053Z,27.67
2022-10-10T03:49:01.492Z,28.23
2022-10-10T03:51:31.270Z,25.87
2022-10-10T03:54:01.755Z,32.83
2022-10-10T03:56:32.272Z,27.53
2022-10-10T03:59:03.711Z,24.13
2022-10-10T04:01:32.443Z,21.97
2022-10-10T04:04:00.905Z,22.90
2022-10-10T04:06:30.659Z,23.13
2022-10-10T04:08:59.090Z,29.20
2022-10-10T04:11:27.505Z,23.50
2022-10-10T04:13:55.988Z,24.07
2022-10-10T04:16:24.388Z,30.53
2022-10-10T04:18:52.809Z,24.37
2022-10-10T04:21:21.244Z,32.43
2022-10-10T04:23:51.049Z,21.90
2022-10-10T04:26:19.483Z,22.17
2022-10-10T04:28:47.942Z,23.40
2022-10-10T04:31:16.425Z,30.67
2022-10-10T04:33:44.873Z,28.77
2022-10-10T04:36:13.278Z,27.50
2022-10-10T04:38:41.683Z,28.10
2022-10-10T04:41:11.483Z,23.10
2022-10-10T04:43:39.996Z,25.97
2022-10-10T04:46:08.946Z,28.10
2022-10-10T04:48:38.330Z,33.57
2022-10-10T04:51:06.975Z,33.70
2022-10-10T04:53:35.483Z,32.07
2022-10-10T04:56:04.618Z,29.80
2022-10-10T04:58:34.419Z,28.63
2022-10-10T05:01:04.305Z,24.07
2022-10-10T05:03:33.015Z,22.37
2022-10-10T05:06:01.483Z,25.27
2022-10-10T05:08:30.639Z,22.17
2022-10-10T05:10:59.138Z,22.53
2022-10-10T05:13:27.639Z,17.77
2022-10-10T05:15:57.552Z,18.97
2022-10-10T05:18:26.058Z,15.13
2022-10-10T05:20:54.460Z,15.07
2022-10-10T05:23:22.871Z,13.37
2022-10-10T05:25:52.112Z,12.20
2022-10-10T05:28:20.924Z,13.47
2022-10-10T05:30:49.676Z,12.50
2022-10-10T05:33:19.483Z,11.93
2022-10-10T05:35:48.757Z,14.63
2022-10-10T05:38:17.259Z,14.17
2022-10-10T05:40:45.746Z,14.00
2022-10-10T05:43:15.087Z,14.40
2022-10-10T05:45:44.473Z,22.10
2022-10-10T05:48:13.321Z,13.17
2022-10-10T05:50:47.603Z,18.83
2022-10-10T05:53:16.047Z,11.00
2022-10-10T05:55:44.616Z,12.53
2022-10-10T05:58:14.251Z,9.23
2022-10-10T06:00:43.033Z,10.23
2022-10-10T06:03:13.997Z,13.10
2022-10-10T06:05:44.404Z,9.43
2022-10-10T06:08:13.487Z,8.03
2022-10-10T06:10:42.879Z,8.27
2022-10-10T06:13:11.569Z,7.37
2022-10-10T06:15:40.178Z,11.53
2022-10-10T06:18:09.048Z,6.63
2022-10-10T06:20:37.577Z,5.23
2022-10-10T06:23:07.814Z,6.40
2022-10-10T06:25:41.459Z,7.70
2022-10-10T06:28:10.499Z,5.30
2022-10-10T06:30:41.561Z,5.10
2022-10-10T06:33:10.073Z,8.80
2022-10-10T06:35:42.151Z,7.50
2022-10-10T06:38:12.286Z,5.43
2022-10-10T06:40:40.753Z,6.13
2022-10-10T06:43:11.990Z,7.00
2022-10-10T06:45:41.109Z,6.77
2022-10-10T06:48:09.698Z,6.43
2022-10-10T06:50:38.255Z,6.73
2022-10-10T06:53:07.012Z,7.37
2022-10-10T06:55:36.853Z,5.07
2022-10-10T06:58:05.444Z,6.40
2022-10-10T07:00:33.935Z,4.37
2022-10-10T07:03:02.418Z,6.30
2022-10-10T07:05:30.859Z,5.40
2022-10-10T07:07:59.340Z,6.73
2022-10-10T07:10:27.784Z,6.20
2022-10-10T07:12:57.860Z,8.53
2022-10-10T07:15:26.617Z,4.20
2022-10-10T07:17:58.829Z,5.90
2022-10-10T07:20:27.357Z,5.67
2022-10-10T07:22:55.805Z,7.63
2022-10-10T07:25:24.401Z,8.77
2022-10-10T07:27:52.948Z,7.40
2022-10-10T07:30:22.736Z,10.73
2022-10-10T07:32:51.532Z,5.10
2022-10-10T07:35:20.393Z,6.93
2022-10-10T07:37:48.986Z,7.00
2022-10-10T07:40:17.514Z,6.00
2022-10-10T07:42:45.944Z,6.77
2022-10-10T07:45:14.333Z,5.67
2022-10-10T07:47:44.142Z,8.50
2022-10-10T07:50:13.025Z,5.90
2022-10-10T07:52:42.317Z,5.53
2022-10-10T07:55:11.195Z,7.07
2022-10-10T07:57:39.782Z,5.47
2022-10-10T08:00:09.619Z,7.57
2022-10-10T08:02:40.986Z,9.00
2022-10-10T08:05:12.665Z,6.87
2022-10-10T08:07:41.224Z,6.93
2022-10-10T08:10:10.325Z,5.93
2022-10-10T08:12:38.992Z,4.33
2022-10-10T08:15:08.102Z,6.33
2022-10-10T08:17:36.630Z,5.73
2022-10-10T08:20:05.161Z,3.80
2022-10-10T08:22:35.005Z,4.00
2022-10-10T08:25:03.848Z,5.40
2022-10-10T08:27:32.342Z,3.93
2022-10-10T08:30:00.791Z,7.10
2022-10-10T08:32:29.218Z,6.20
2022-10-10T08:34:57.702Z,5.13
2022-10-10T08:37:31.644Z,5.63
2022-10-10T08:40:03.763Z,7.17
2022-10-10T08:42:53.038Z,5.57
2022-10-10T08:45:23.600Z,8.30
2022-10-10T08:47:56.133Z,7.03
2022-10-10T08:50:27.130Z,8.10
2022-10-10T08:52:58.359Z,5.53
2022-10-10T08:55:30.952Z,4.97
2022-10-10T08:58:01.184Z,6.03
2022-10-10T09:00:32.221Z,4.20
2022-10-10T09:03:01.601Z,9.40
2022-10-10T09:05:37.358Z,5.00
2022-10-10T09:08:13.102Z,8.90
2022-10-10T09:10:48.760Z,5.53
2022-10-10T09:13:25.361Z,8.67
2022-10-10T09:15:56.450Z,6.73
2022-10-10T09:18:32.262Z,8.00
2022-10-10T09:21:04.517Z,6.30
2022-10-10T09:23:35.280Z,6.10
2022-10-10T09:26:11.035Z,4.77
2022-10-10T09:28:41.502Z,6.53
2022-10-10T09:31:13.416Z,6.53
2022-10-10T09:33:43.677Z,4.57
2022-10-10T09:36:14.231Z,13.37
2022-10-10T09:38:44.749Z,6.30
2022-10-10T09:41:17.037Z,8.38
2022-10-10T09:43:45.707Z,8.93
2022-10-10T09:46:14.715Z,6.43
2022-10-10T09:48:43.713Z,7.07
2022-10-10T09:51:15.269Z,7.13
2022-10-10T09:53:43.944Z,5.77
2022-10-10T09:56:17.921Z,8.37
2022-10-10T09:58:47.411Z,5.97
2022-10-10T10:01:17.572Z,8.57
2022-10-10T10:03:46.198Z,10.05
2022-10-10T10:06:15.510Z,7.43
2022-10-10T10:08:47.962Z,9.27
2022-10-10T10:11:31.041Z,6.33
2022-10-10T10:14:02.387Z,6.13
2022-10-10T10:16:32.329Z,8.93
2022-10-10T10:19:01.626Z,6.75
2022-10-10T10:21:30.541Z,5.22
2022-10-10T10:24:21.608Z,5.00
2022-10-10T10:26:51.745Z,7.18
2022-10-10T10:29:38.793Z,5.80
2022-10-10T10:32:15.442Z,5.03
2022-10-10T10:35:04.707Z,8.48
2022-10-10T10:37:38.439Z,6.40
2022-10-10T10:40:20.809Z,11.13
2022-10-10T10:42:59.333Z,7.05
2022-10-10T10:45:32.049Z,5.53
2022-10-10T10:48:07.461Z,7.47
2022-10-10T10:50:41.748Z,5.18
2022-10-10T10:53:14.920Z,6.70
2022-10-10T10:55:46.720Z,4.38
2022-10-10T11:01:44.803Z,5.68
2022-10-10T11:05:17.390Z,3.50
2022-10-10T11:07:20.313Z,6.38
2022-10-10T11:09:55.196Z,7.72
2022-10-10T11:12:28.999Z,7.70
2022-10-10T11:15:01.429Z,4.22
2022-10-10T11:17:37.209Z,5.07
2022-10-10T11:20:10.505Z,6.55
2022-10-10T11:22:46.228Z,6.47
2022-10-10T11:25:24.110Z,3.80
2022-10-10T11:27:55.006Z,5.30
2022-10-10T11:30:36.528Z,7.03
2022-10-10T11:33:12.259Z,3.38
2022-10-10T11:35:45.009Z,6.50
2022-10-10T11:38:17.100Z,6.32
2022-10-10T11:40:55.052Z,6.88
2022-10-10T11:43:26.926Z,6.68
2022-10-10T11:46:03.208Z,6.05
2022-10-10T11:48:39.111Z,5.13
2022-10-10T11:51:16.255Z,7.93
2022-10-10T11:53:46.686Z,4.15
2022-10-10T11:56:20.953Z,5.03
2022-10-10T11:58:54.419Z,8.18
2022-10-10T12:01:25.745Z,8.13
2022-10-10T12:03:56.139Z,6.35
2022-10-10T12:06:26.822Z,5.85
2022-10-10T12:08:59.934Z,6.22
2022-10-10T12:11:31.972Z,5.03
2022-10-10T12:14:01.759Z,8.90
2022-10-10T12:16:32.680Z,4.55
2022-10-10T12:19:05.364Z,6.35
2022-10-10T12:21:34.609Z,8.02
2022-10-10T12:24:05.527Z,8.43
2022-10-10T12:26:52.439Z,7.07
2022-10-10T12:29:41.159Z,5.82
2022-10-10T12:32:25.152Z,5.50
2022-10-10T12:35:00.557Z,5.82
2022-10-10T12:37:30.320Z,4.93
2022-10-10T12:40:16.687Z,8.20
2022-10-10T12:43:00.054Z,8.50
2022-10-10T12:45:47.556Z,6.32
2022-10-10T12:48:22.097Z,8.85
2022-10-10T12:50:57.469Z,8.25
2022-10-10T12:53:29.803Z,5.22
2022-10-10T12:56:00.731Z,5.45
2022-10-10T12:58:30.302Z,9.13
2022-10-10T13:01:00.309Z,6.13
2022-10-10T13:03:34.620Z,6.65
2022-10-10T13:06:05.997Z,10.23
2022-10-10T13:08:37.776Z,7.07
2022-10-10T13:11:07.934Z,8.23
2022-10-10T13:13:37.296Z,9.82
2022-10-10T13:16:10.703Z,11.68
2022-10-10T13:18:43.162Z,10.32
2022-10-10T13:21:13.362Z,6.47
2022-10-10T13:23:43.872Z,8.68
2022-10-10T13:26:22.204Z,7.95
2022-10-10T13:28:51.034Z,14.18
2022-10-10T13:31:19.885Z,12.02
2022-10-10T13:33:49.802Z,11.15
2022-10-10T13:36:21.577Z,9.45
2022-10-10T13:38:50.336Z,7.35
2022-10-10T13:41:19.201Z,11.82
2022-10-10T13:43:47.685Z,11.88
2022-10-10T13:46:21.793Z,10.57
2022-10-10T13:48:51.790Z,8.38
2022-10-10T13:51:20.361Z,9.30
2022-10-10T13:53:53.313Z,9.77
2022-10-10T13:56:24.033Z,8.82
2022-10-10T13:58:53.574Z,8.20
2022-10-10T14:01:24.195Z,9.48
2022-10-10T14:03:55.680Z,9.25
2022-10-10T14:06:26.465Z,9.50
2022-10-10T14:08:55.515Z,12.15
2022-10-10T14:11:25.779Z,9.02
2022-10-10T14:13:56.209Z,10.85
2022-10-10T14:16:26.338Z,11.20
2022-10-10T14:18:56.158Z,7.50
2022-10-10T14:21:24.675Z,11.75
2022-10-10T14:23:53.451Z,7.35
2022-10-10T14:26:23.316Z,12.60
2022-10-10T14:28:51.988Z,10.23
2022-10-10T14:31:21.004Z,8.00
2022-10-10T14:33:49.429Z,7.38
2022-10-10T14:36:19.233Z,11.82
2022-10-10T14:38:47.715Z,9.45
2022-10-10T14:41:19.127Z,12.32
2022-10-10T14:43:47.579Z,10.35
2022-10-10T14:46:18.874Z,12.07
2022-10-10T14:48:47.433Z,7.93
2022-10-10T14:51:33.701Z,13.95
2022-10-10T14:54:13.466Z,11.90
2022-10-10T14:57:07.714Z,9.32
2022-10-10T14:59:47.572Z,8.68
2022-10-10T15:02:19.325Z,12.35
2022-10-10T15:04:47.874Z,10.15
2022-10-10T15:07:16.710Z,8.05
2022-10-10T15:12:37.544Z,10.63
2022-10-10T15:15:06.720Z,10.68
2022-10-10T15:17:35.457Z,12.90
2022-10-10T15:20:04.110Z,14.00
2022-10-10T15:22:32.625Z,11.85
2022-10-10T15:25:02.890Z,11.57
2022-10-10T15:27:32.792Z,12.18
2022-10-10T15:30:01.710Z,12.30
2022-10-10T15:32:30.358Z,13.80
2022-10-10T15:34:58.946Z,11.35
2022-10-10T15:37:28.023Z,9.90
2022-10-10T15:39:57.008Z,13.52
2022-10-10T15:42:27.105Z,12.05
2022-10-10T15:44:55.919Z,10.40
2022-10-10T15:47:24.847Z,10.10
2022-10-10T15:49:53.360Z,12.23
2022-10-10T15:52:23.248Z,8.60
2022-10-10T15:54:51.829Z,10.93
2022-10-10T15:57:20.683Z,9.52
2022-10-10T15:59:50.499Z,8.13
2022-10-10T16:02:19.192Z,13.48
2022-10-10T16:04:48.038Z,11.13
2022-10-10T16:07:38.488Z,13.60
2022-10-10T16:10:05.094Z,8.98
2022-10-10T16:12:33.556Z,9.38
2022-10-10T16:15:07.064Z,8.00
2022-10-10T16:17:35.924Z,14.25
2022-10-10T16:20:04.531Z,16.67
2022-10-10T16:22:33.051Z,9.52
2022-10-10T16:27:49.997Z,12.82
2022-10-10T16:30:20.620Z,10.38
2022-10-10T16:32:49.248Z,10.75
2022-10-10T16:35:17.842Z,14.82
2022-10-10T16:37:46.296Z,14.55
2022-10-10T16:40:14.701Z,13.13
2022-10-10T16:42:43.297Z,18.73
2022-10-10T16:45:12.520Z,13.02
2022-10-10T16:47:42.291Z,14.10
2022-10-10T16:50:11.187Z,10.65
2022-10-10T16:52:40.428Z,14.80
2022-10-10T16:55:09.172Z,13.35
2022-10-10T16:57:38.178Z,10.73
2022-10-10T17:00:07.507Z,12.68
2022-10-10T17:02:38.712Z,15.35
2022-10-10T17:05:09.050Z,13.75
2022-10-10T17:07:37.624Z,10.82
2022-10-10T17:10:06.774Z,12.23
2022-10-10T17:12:35.253Z,13.02
2022-10-10T17:15:03.856Z,14.88
2022-10-10T17:17:32.447Z,17.17
2022-10-10T17:20:02.142Z,12.57
2022-10-10T17:22:32.179Z,9.77
2022-10-10T17:25:00.623Z,9.93
2022-10-10T17:27:29.242Z,18.75
2022-10-10T17:29:57.760Z,17.57
2022-10-10T17:32:26.548Z,12.87
2022-10-10T17:34:55.689Z,14.93
2022-10-10T17:37:24.159Z,20.20
2022-10-10T17:39:54.155Z,14.03
2022-10-10T17:42:22.739Z,19.53
2022-10-10T17:44:56.205Z,20.47
2022-10-10T17:47:24.783Z,19.43
2022-10-10T17:49:53.339Z,18.70
2022-10-10T17:52:21.950Z,16.80
2022-10-10T17:54:50.479Z,14.40
2022-10-10T17:57:20.352Z,21.10
2022-10-10T17:59:48.830Z,15.47
2022-10-10T18:02:18.032Z,19.30
2022-10-10T18:04:46.680Z,16.13
2022-10-10T18:07:15.628Z,19.23
2022-10-10T18:09:44.050Z,18.30
2022-10-10T18:12:12.804Z,17.10
2022-10-10T18:14:42.586Z,22.03
2022-10-10T18:17:11.333Z,18.43
2022-10-10T18:19:39.809Z,17.63
2022-10-10T18:22:08.390Z,16.80
2022-10-10T18:24:36.876Z,15.97
2022-10-10T18:27:06.526Z,16.67
2022-10-10T18:29:35.482Z,20.93
2022-10-10T18:32:05.832Z,17.33
2022-10-10T18:34:34.260Z,18.73
2022-10-10T18:37:02.799Z,22.30
2022-10-10T18:39:33.318Z,19.30
2022-10-10T18:42:01.942Z,17.80
2022-10-10T18:44:30.662Z,19.37
2022-10-10T18:46:59.449Z,16.60
2022-10-10T18:49:29.284Z,20.07
2022-10-10T18:51:57.740Z,14.47
2022-10-10T18:54:27.315Z,17.07
2022-10-10T18:56:55.748Z,15.73
2022-10-10T18:59:26.387Z,15.73
2022-10-10T19:01:56.062Z,17.33
2022-10-10T19:04:24.756Z,18.87
2022-10-10T19:06:57.651Z,16.10
2022-10-10T19:09:26.821Z,17.07
2022-10-10T19:11:55.476Z,21.30
2022-10-10T19:14:23.908Z,22.73
2022-10-10T19:16:52.381Z,25.40
2022-10-10T19:19:21.196Z,46.40
2022-10-10T19:21:50.380Z,19.00
2022-10-10T19:24:21.514Z,19.43
2022-10-10T19:26:54.784Z,21.73
2022-10-10T19:29:23.606Z,21.60
2022-10-10T19:31:52.319Z,20.53
2022-10-10T19:34:20.880Z,23.83
2022-10-10T19:36:49.459Z,23.47
2022-10-10T19:39:17.876Z,20.43
2022-10-10T19:41:47.693Z,16.77
2022-10-10T19:44:16.182Z,23.57
2022-10-10T19:46:44.629Z,20.90
2022-10-10T19:49:13.116Z,16.20
2022-10-10T19:51:41.550Z,23.93
2022-10-10T19:54:13.186Z,19.50
2022-10-10T19:56:41.618Z,24.93
2022-10-10T19:59:11.572Z,21.80
2022-10-10T20:01:40.801Z,21.60
2022-10-10T20:04:09.233Z,23.93
2022-10-10T20:06:37.699Z,34.33
2022-10-10T20:09:10.372Z,20.73
2022-10-10T20:11:39.446Z,24.67
2022-10-10T20:14:08.255Z,23.97
2022-10-10T20:16:38.242Z,23.07
2022-10-10T20:19:06.728Z,20.53
2022-10-10T20:21:35.645Z,23.37
2022-10-10T20:24:06.019Z,20.00
2022-10-10T20:26:35.172Z,23.83
2022-10-10T20:29:03.998Z,22.03
2022-10-10T20:31:34.903Z,29.47
2022-10-10T20:34:05.337Z,27.77
2022-10-10T20:36:34.587Z,21.03
2022-10-10T20:39:04.806Z,21.20
2022-10-10T20:41:34.276Z,23.90
2022-10-10T20:44:04.428Z,23.63
2022-10-10T20:46:34.958Z,24.57
2022-10-10T20:49:06.416Z,29.43
2022-10-10T20:51:34.947Z,19.70
2022-10-10T20:54:04.461Z,25.20
2022-10-10T20:56:33.470Z,22.53
2022-10-10T20:59:02.225Z,21.60
2022-10-10T21:01:31.897Z,26.40
2022-10-10T21:04:00.431Z,23.00
2022-10-10T21:06:32.535Z,25.37
2022-10-10T21:09:01.778Z,18.80
2022-10-10T21:11:30.240Z,25.20
2022-10-10T21:13:59.593Z,24.10
2022-10-10T21:16:29.085Z,21.00
2022-10-10T21:18:58.755Z,23.33
2022-10-10T21:21:28.305Z,22.17
2022-10-10T21:23:59.448Z,24.80
2022-10-10T21:26:28.698Z,18.80
2022-10-10T21:28:57.830Z,29.13
2022-10-10T21:31:26.941Z,21.27
2022-10-10T21:33:55.588Z,21.40
2022-10-10T21:36:24.979Z,20.03
2022-10-10T21:38:56.941Z,17.53
2022-10-10T21:41:27.174Z,23.23
2022-10-10T21:43:56.607Z,16.80
2022-10-10T21:46:28.605Z,18.83
2022-10-10T21:48:59.419Z,20.27
2022-10-10T21:51:27.919Z,17.80
2022-10-10T21:53:57.705Z,17.70
2022-10-10T21:56:27.671Z,15.20
2022-10-10T21:59:00.878Z,25.27
2022-10-10T22:01:32.981Z,24.97
2022-10-10T22:04:02.429Z,16.20
2022-10-10T22:06:31.625Z,21.03
2022-10-10T22:09:00.591Z,22.00
2022-10-10T22:11:31.458Z,21.53
2022-10-10T22:14:02.260Z,20.20
2022-10-10T22:16:30.927Z,18.07
2022-10-10T22:18:59.659Z,18.80
2022-10-10T22:21:31.560Z,17.67
2022-10-10T22:24:01.483Z,17.13
2022-10-10T22:26:31.757Z,20.10
2022-10-10T22:29:03.181Z,21.80
2022-10-10T22:31:31.643Z,20.83
2022-10-10T22:34:00.145Z,18.73
2022-10-10T22:36:30.730Z,16.27
2022-10-10T22:38:59.115Z,22.43
2022-10-10T22:41:27.526Z,14.97
2022-10-10T22:43:57.285Z,16.10
2022-10-10T22:46:26.303Z,16.80
2022-10-10T22:48:54.728Z,16.73
2022-10-10T22:51:23.281Z,13.23
2022-10-10T22:53:51.715Z,17.23
2022-10-10T22:56:20.875Z,16.40
2022-10-10T22:58:49.830Z,19.10
2022-10-10T23:01:20.724Z,16.27
2022-10-10T23:03:49.326Z,18.97
2022-10-10T23:06:17.956Z,19.03
2022-10-10T23:08:46.351Z,20.17
2022-10-10T23:11:14.786Z,15.23
2022-10-10T23:13:43.549Z,14.33
2022-10-10T23:16:12.206Z,13.50
2022-10-10T23:18:42.062Z,18.10
2022-10-10T23:21:10.510Z,11.27
2022-10-10T23:23:39.816Z,20.43
2022-10-10T23:26:09.120Z,13.77
2022-10-10T23:28:39.444Z,20.20
2022-10-10T23:31:11.375Z,17.87
2022-10-10T23:33:40.577Z,14.20
2022-10-10T23:36:14.235Z,15.07
2022-10-10T23:38:45.465Z,16.77
2022-10-10T23:41:14.834Z,14.73
2022-10-10T23:43:43.278Z,17.67
2022-10-10T23:46:11.715Z,11.97
2022-10-10T23:48:40.199Z,13.73
2022-10-10T23:51:10.042Z,18.33
2022-10-10T23:53:38.516Z,18.10
2022-10-10T23:56:07.605Z,17.03
2022-10-10T23:58:36.798Z,14.87
